CheckWX is a tool to help pilots better visualize weather data.  It is not intended as a substitute for an official pre-flight weather briefing.

07:34:50 UTC

KSJC METAR
Norman Y Mineta San Jose International Airport
San Jose, California, USA
Current

42 mins ago

KSJC 060653Z 00000KT 10SM FEW012 FEW047 SCT120 13/10 A3003 RMK AO2 SLP169 T01330100
Observed
Dec-6 @ 06:53 UTC
Visibility
10 SM
Flight Rules
VFR
Cloud Levels
  • Few at 1,200' AGL
  • Few at 4,700' AGL
  • Scattered at 12,000' AGL
Temperature
13°C / 55°F
Dewpoint
10°C / 50°F
Humidity
82%
Altimeter
30.03" Hg
Pressure
1016.92 hPa
Previous

2 hours ago

KSJC 060553Z 20004KT 10SM FEW012 SCT035 BKN047 14/11 A3004 RMK AO2 SLP171 T01390106 10156 20139 55000
Observed
Dec-6 @ 05:53 UTC
Wind
  • 200° at 4 KTS
Visibility
10 SM
Flight Rules
VFR
Cloud Levels
  • Few at 1,200' AGL
  • Scattered at 3,500' AGL
  • Broken at 4,700' AGL
Temperature
14°C / 57°F
Dewpoint
11°C / 52°F
Humidity
82%
Altimeter
30.04" Hg
Pressure
1017.32 hPa
Previous

3 hours ago

KSJC 060453Z 21009KT 10SM FEW014 SCT025 BKN040 15/11 A3004 RMK AO2 SLP170 T01500106
Observed
Dec-6 @ 04:53 UTC
Wind
  • 210° at 9 KTS
Visibility
10 SM
Flight Rules
VFR
Cloud Levels
  • Few at 1,400' AGL
  • Scattered at 2,500' AGL
  • Broken at 4,000' AGL
Temperature
15°C / 59°F
Dewpoint
11°C / 52°F
Humidity
77%
Altimeter
30.04" Hg
Pressure
1017.32 hPa